Time;durP1;ratioP1;P1;durP2;ratioP2;P2;SDS_P1;SDS_P2;PMS_P1;PMS_P2;Temp;Humidity;BMP_temperature;BMP_pressure;BME280_temperature;BME280_humidity;BME280_pressure;Samples;Min_cycle;Max_cycle;Signal;HPM_P1;HPM_P2
2021/09/22 00:01:30;;;;;;;2.97;2.73;;;7.50;99.90;;;;;;472495;250;27876;-69
2021/09/22 00:03:31;;;;;;;3.27;2.97;;;7.40;99.90;;;;;;472489;250;29457;-69
2021/09/22 00:05:32;;;;;;;3.43;3.00;;;7.50;99.90;;;;;;472511;250;28631;-69
2021/09/22 00:07:33;;;;;;;3.27;3.07;;;7.50;99.90;;;;;;472547;250;28454;-69
2021/09/22 00:09:35;;;;;;;4.63;3.40;;;7.40;99.90;;;;;;472532;250;28379;-69
2021/09/22 00:11:36;;;;;;;3.40;3.10;;;7.50;99.90;;;;;;472528;250;28477;-69
2021/09/22 00:13:37;;;;;;;3.03;2.83;;;7.50;99.90;;;;;;472553;250;28445;-70
2021/09/22 00:15:38;;;;;;;7.50;3.10;;;7.50;99.90;;;;;;472495;250;27972;-69
2021/09/22 00:17:40;;;;;;;3.63;3.33;;;7.40;99.90;;;;;;472541;250;28092;-69
2021/09/22 00:19:41;;;;;;;3.80;3.50;;;7.40;99.90;;;;;;472530;250;27862;-70
2021/09/22 00:21:42;;;;;;;3.53;3.30;;;7.40;99.90;;;;;;472507;250;28122;-69
2021/09/22 00:23:43;;;;;;;4.10;3.03;;;7.40;99.90;;;;;;472529;250;27710;-69
2021/09/22 00:25:45;;;;;;;3.53;3.23;;;7.40;99.90;;;;;;472502;250;27964;-69
2021/09/22 00:27:46;;;;;;;3.40;3.10;;;7.40;99.90;;;;;;472536;250;28870;-69
2021/09/22 00:29:47;;;;;;;3.00;2.80;;;7.40;99.90;;;;;;472472;250;27994;-69
2021/09/22 00:31:48;;;;;;;6.43;3.30;;;7.40;99.90;;;;;;472494;250;28366;-69
2021/09/22 00:33:50;;;;;;;3.22;2.92;;;7.40;99.90;;;;;;472509;245;28381;-69
2021/09/22 00:35:51;;;;;;;2.73;2.53;;;7.40;99.90;;;;;;472508;250;27959;-69
2021/09/22 00:37:53;;;;;;;3.53;3.33;;;7.30;99.90;;;;;;472527;250;28496;-69
2021/09/22 00:39:53;;;;;;;3.13;2.83;;;7.30;99.90;;;;;;472506;250;28602;-69
2021/09/22 00:41:55;;;;;;;3.63;2.83;;;7.40;99.90;;;;;;472491;250;28761;-69
2021/09/22 00:43:56;;;;;;;3.90;3.60;;;7.30;99.90;;;;;;472518;250;29551;-69
2021/09/22 00:46:04;;;;;;;3.17;2.95;;;7.20;99.90;;;;;;472482;250;28370;-69
2021/09/22 00:48:01;;;;;;;3.00;2.80;;;7.20;99.90;;;;;;472145;252;27579;-69
2021/09/22 00:50:02;;;;;;;4.10;2.87;;;7.20;99.90;;;;;;472487;250;27533;-69
2021/09/22 00:52:04;;;;;;;3.10;2.70;;;7.20;99.90;;;;;;472534;250;28543;-69
2021/09/22 00:54:05;;;;;;;3.00;2.80;;;7.10;99.90;;;;;;472521;250;28639;-69
2021/09/22 00:56:06;;;;;;;3.47;3.17;;;7.10;99.90;;;;;;472484;251;28905;-69
2021/09/22 00:58:07;;;;;;;6.20;3.62;;;7.20;99.90;;;;;;472552;250;27533;-69
2021/09/22 01:00:09;;;;;;;3.20;2.90;;;7.20;99.90;;;;;;472498;250;28028;-69
2021/09/22 01:02:10;;;;;;;2.95;2.75;;;7.20;99.90;;;;;;472509;250;28175;-69
2021/09/22 01:04:11;;;;;;;3.10;2.80;;;7.20;99.90;;;;;;472519;250;27613;-69
2021/09/22 01:06:12;;;;;;;2.95;2.75;;;7.20;99.90;;;;;;472519;250;27516;-69
2021/09/22 01:08:14;;;;;;;3.20;3.00;;;7.20;99.90;;;;;;472561;250;27513;-69
2021/09/22 01:10:15;;;;;;;3.17;2.97;;;7.20;99.90;;;;;;472518;250;28458;-69
2021/09/22 01:12:16;;;;;;;2.80;2.60;;;7.20;99.90;;;;;;472532;250;27934;-70
2021/09/22 01:14:17;;;;;;;3.28;2.97;;;7.20;99.90;;;;;;472501;250;27521;-69
2021/09/22 01:16:19;;;;;;;5.62;3.10;;;7.10;99.90;;;;;;472556;245;28084;-69
2021/09/22 01:18:20;;;;;;;3.10;2.90;;;7.10;99.90;;;;;;472560;250;27957;-69
2021/09/22 01:20:21;;;;;;;3.83;3.53;;;7.10;99.90;;;;;;472497;250;27620;-69
2021/09/22 01:22:23;;;;;;;6.62;3.25;;;7.00;99.90;;;;;;472504;250;27509;-69
2021/09/22 01:24:24;;;;;;;3.30;3.00;;;7.00;99.90;;;;;;472481;250;27638;-69
2021/09/22 01:26:25;;;;;;;3.40;3.10;;;7.00;99.90;;;;;;472546;250;27540;-69
2021/09/22 01:28:26;;;;;;;3.00;2.80;;;7.00;99.90;;;;;;472521;245;27588;-69
2021/09/22 01:30:28;;;;;;;3.30;3.00;;;6.90;99.90;;;;;;472504;250;27548;-70
2021/09/22 01:32:29;;;;;;;3.92;3.20;;;6.90;99.90;;;;;;472489;250;27607;-69
2021/09/22 01:34:30;;;;;;;3.50;3.20;;;6.90;99.90;;;;;;472528;250;27525;-69
2021/09/22 01:36:31;;;;;;;3.10;2.80;;;6.90;99.90;;;;;;472526;250;27532;-69
2021/09/22 01:38:33;;;;;;;3.03;2.83;;;6.90;99.90;;;;;;472562;250;28399;-69
2021/09/22 01:40:34;;;;;;;2.70;2.50;;;6.90;99.90;;;;;;472508;250;27987;-69
2021/09/22 01:42:35;;;;;;;2.65;2.50;;;6.90;99.90;;;;;;472489;250;29443;-69
2021/09/22 01:44:36;;;;;;;3.00;2.80;;;6.80;99.90;;;;;;472518;250;27493;-69
2021/09/22 01:46:38;;;;;;;2.62;2.42;;;6.80;99.90;;;;;;472496;250;27662;-69
2021/09/22 01:48:39;;;;;;;3.20;2.90;;;6.80;99.90;;;;;;472499;250;27511;-69
2021/09/22 01:50:40;;;;;;;3.50;2.67;;;6.80;99.90;;;;;;472488;250;27569;-70
2021/09/22 01:52:41;;;;;;;3.58;3.28;;;6.80;99.90;;;;;;472491;250;28802;-69
2021/09/22 01:54:43;;;;;;;2.90;2.70;;;6.80;99.90;;;;;;472531;250;28025;-69
2021/09/22 01:56:44;;;;;;;3.43;3.13;;;6.80;99.90;;;;;;472530;251;27532;-69
2021/09/22 01:58:45;;;;;;;3.45;2.40;;;6.80;99.90;;;;;;472526;250;28928;-69
2021/09/22 02:00:46;;;;;;;3.37;3.08;;;6.80;99.90;;;;;;472450;250;27524;-69
2021/09/22 02:02:48;;;;;;;2.83;2.62;;;6.70;99.90;;;;;;472418;250;27578;-69
2021/09/22 02:04:49;;;;;;;3.22;2.80;;;6.70;99.90;;;;;;472508;250;27499;-69
2021/09/22 02:06:50;;;;;;;3.00;2.80;;;6.70;99.90;;;;;;472525;250;27554;-69
2021/09/22 02:08:51;;;;;;;2.90;2.70;;;6.70;99.90;;;;;;472506;250;28038;-69
2021/09/22 02:10:53;;;;;;;2.92;2.65;;;6.80;99.90;;;;;;472485;250;27550;-69
2021/09/22 02:12:54;;;;;;;3.30;3.00;;;6.70;99.90;;;;;;472488;250;27538;-69
2021/09/22 02:14:55;;;;;;;3.10;2.90;;;6.70;99.90;;;;;;472561;245;27613;-69
2021/09/22 02:16:57;;;;;;;3.50;2.97;;;6.60;99.90;;;;;;472530;250;27554;-69
2021/09/22 02:18:58;;;;;;;2.73;2.57;;;6.70;99.90;;;;;;472540;250;27558;-69
2021/09/22 02:20:59;;;;;;;2.83;2.62;;;6.70;99.90;;;;;;472470;250;28221;-70
2021/09/22 02:23:00;;;;;;;5.20;2.55;;;6.70;99.90;;;;;;472538;250;28100;-69
2021/09/22 02:25:02;;;;;;;3.35;3.05;;;6.70;99.90;;;;;;472538;250;27495;-69
2021/09/22 02:27:03;;;;;;;2.70;2.50;;;6.70;99.90;;;;;;472502;250;27537;-69
2021/09/22 02:29:04;;;;;;;2.87;2.65;;;6.70;99.90;;;;;;472550;250;27509;-69
2021/09/22 02:31:05;;;;;;;3.10;2.90;;;6.70;99.90;;;;;;472526;250;27526;-69
2021/09/22 02:33:07;;;;;;;2.90;2.70;;;6.60;99.90;;;;;;472545;250;28124;-69
2021/09/22 02:35:08;;;;;;;3.70;3.20;;;6.60;99.90;;;;;;472539;250;28001;-69
2021/09/22 02:37:09;;;;;;;3.40;3.20;;;6.60;99.90;;;;;;472468;250;27530;-69
2021/09/22 02:39:10;;;;;;;3.15;2.95;;;6.50;99.90;;;;;;472536;250;27490;-69
2021/09/22 02:41:12;;;;;;;3.75;3.00;;;6.50;99.90;;;;;;472496;250;27530;-69
2021/09/22 02:43:13;;;;;;;2.95;2.70;;;6.60;99.90;;;;;;472519;250;27554;-69
2021/09/22 02:45:14;;;;;;;3.37;3.08;;;6.50;99.90;;;;;;472529;250;27565;-69
2021/09/22 02:47:15;;;;;;;3.10;2.90;;;6.40;99.90;;;;;;472516;250;27991;-69
2021/09/22 02:49:17;;;;;;;3.00;2.80;;;6.40;99.90;;;;;;472534;250;27999;-69
2021/09/22 02:51:18;;;;;;;2.97;2.78;;;6.40;99.90;;;;;;472481;250;27548;-69
2021/09/22 02:53:19;;;;;;;3.12;2.90;;;6.40;99.90;;;;;;472529;250;27590;-69
2021/09/22 02:55:20;;;;;;;3.10;2.78;;;6.40;99.90;;;;;;472551;250;27494;-69
2021/09/22 02:57:22;;;;;;;3.00;2.80;;;6.30;99.90;;;;;;472491;250;27529;-69
2021/09/22 02:59:23;;;;;;;3.37;2.90;;;6.30;99.90;;;;;;472530;250;27495;-69
2021/09/22 03:01:24;;;;;;;2.65;2.45;;;6.30;99.90;;;;;;472494;250;28068;-69
2021/09/22 03:03:25;;;;;;;2.87;2.67;;;6.30;99.90;;;;;;472541;250;28021;-69
2021/09/22 03:05:27;;;;;;;3.25;3.05;;;6.30;99.90;;;;;;472523;250;27521;-69
2021/09/22 03:07:28;;;;;;;2.75;2.55;;;6.30;99.90;;;;;;472510;250;27588;-69
2021/09/22 03:09:29;;;;;;;2.55;2.40;;;6.30;99.90;;;;;;472437;250;27524;-69
2021/09/22 03:11:30;;;;;;;2.65;2.50;;;6.30;99.90;;;;;;472485;250;27525;-69
2021/09/22 03:13:32;;;;;;;3.10;2.90;;;6.30;99.90;;;;;;472544;250;27617;-69
2021/09/22 03:15:33;;;;;;;2.65;2.45;;;6.30;99.90;;;;;;472534;250;27605;-69
2021/09/22 03:17:34;;;;;;;3.00;2.80;;;6.30;99.90;;;;;;472509;250;27991;-69
2021/09/22 03:19:36;;;;;;;3.10;2.80;;;6.30;99.90;;;;;;472491;250;28716;-69
2021/09/22 03:21:37;;;;;;;3.45;2.70;;;6.30;99.90;;;;;;472530;250;27504;-69
2021/09/22 03:23:38;;;;;;;3.22;2.67;;;6.30;99.90;;;;;;472542;250;27546;-69
2021/09/22 03:25:39;;;;;;;3.12;2.92;;;6.20;99.90;;;;;;472538;251;27525;-69
2021/09/22 03:27:41;;;;;;;3.08;2.87;;;6.20;99.90;;;;;;472492;250;27623;-69
2021/09/22 03:29:42;;;;;;;2.80;2.60;;;6.20;99.90;;;;;;472460;250;27494;-69
2021/09/22 03:31:44;;;;;;;2.62;2.42;;;6.10;99.90;;;;;;472481;250;27949;-68
2021/09/22 03:33:44;;;;;;;2.85;2.58;;;6.20;99.90;;;;;;472518;250;28029;-69
2021/09/22 03:35:46;;;;;;;2.47;2.33;;;6.20;99.90;;;;;;472525;248;27491;-69
2021/09/22 03:37:47;;;;;;;3.35;2.80;;;6.20;99.90;;;;;;472434;250;27592;-69
2021/09/22 03:39:48;;;;;;;2.90;2.70;;;6.20;99.90;;;;;;472467;250;27540;-69
2021/09/22 03:41:49;;;;;;;2.75;2.55;;;6.10;99.90;;;;;;472479;250;27518;-69
2021/09/22 03:43:51;;;;;;;2.65;2.45;;;6.10;99.90;;;;;;472521;250;27617;-69
2021/09/22 03:45:52;;;;;;;3.05;2.85;;;6.00;99.90;;;;;;472519;250;27495;-69
2021/09/22 03:47:53;;;;;;;2.80;2.60;;;6.10;99.90;;;;;;472468;251;28071;-69
2021/09/22 03:49:54;;;;;;;3.30;3.00;;;6.10;99.90;;;;;;472479;250;28128;-69
2021/09/22 03:51:56;;;;;;;2.80;2.60;;;6.10;99.90;;;;;;472477;250;27593;-69
2021/09/22 03:53:57;;;;;;;3.00;2.80;;;6.10;99.90;;;;;;472520;250;27532;-69
2021/09/22 03:55:58;;;;;;;2.70;2.50;;;6.00;99.90;;;;;;472467;250;27650;-69
2021/09/22 03:57:59;;;;;;;3.08;2.85;;;6.00;99.90;;;;;;472474;250;27572;-69
2021/09/22 04:00:01;;;;;;;2.80;2.60;;;6.00;99.90;;;;;;472558;250;27887;-69
2021/09/22 04:02:02;;;;;;;3.00;2.80;;;6.00;99.90;;;;;;472494;250;28053;-69
2021/09/22 04:04:03;;;;;;;2.80;2.60;;;6.00;99.90;;;;;;472514;250;28087;-69
2021/09/22 04:06:04;;;;;;;2.87;2.67;;;6.00;99.90;;;;;;472507;250;27495;-69
2021/09/22 04:08:06;;;;;;;2.70;2.50;;;6.00;99.90;;;;;;472442;250;27541;-69
2021/09/22 04:10:07;;;;;;;2.85;2.58;;;6.00;99.90;;;;;;472467;250;27570;-69
2021/09/22 04:12:08;;;;;;;2.35;2.20;;;6.00;99.90;;;;;;472501;250;27557;-69
2021/09/22 04:14:09;;;;;;;2.70;2.50;;;5.90;99.90;;;;;;472511;250;27564;-70
2021/09/22 04:16:11;;;;;;;3.05;2.83;;;5.90;99.90;;;;;;472502;250;27494;-69
2021/09/22 04:18:12;;;;;;;2.90;2.70;;;5.90;99.90;;;;;;472463;250;27981;-69
2021/09/22 04:20:13;;;;;;;2.40;2.30;;;5.90;99.90;;;;;;472533;250;28120;-69
2021/09/22 04:22:14;;;;;;;2.70;2.50;;;5.90;99.90;;;;;;472492;250;27485;-69
2021/09/22 04:24:16;;;;;;;2.78;2.58;;;5.90;99.90;;;;;;472504;250;27622;-69
2021/09/22 04:26:17;;;;;;;3.03;2.83;;;5.90;99.90;;;;;;472509;250;27496;-69
2021/09/22 04:28:18;;;;;;;3.10;2.90;;;5.90;99.90;;;;;;472501;250;27565;-69
2021/09/22 04:30:19;;;;;;;2.55;2.35;;;5.90;99.90;;;;;;472521;250;27574;-69
2021/09/22 04:32:21;;;;;;;2.65;2.45;;;5.90;99.90;;;;;;472515;250;27505;-69
2021/09/22 04:34:22;;;;;;;3.08;2.80;;;5.90;99.90;;;;;;472513;250;27995;-68
2021/09/22 04:36:23;;;;;;;3.08;2.87;;;5.90;99.90;;;;;;472505;250;27933;-70
2021/09/22 04:38:25;;;;;;;2.87;2.67;;;5.90;99.90;;;;;;472490;245;27495;-69
2021/09/22 04:40:29;;;;;;;3.28;3.08;;;5.90;99.90;;;;;;472540;250;27497;-69
2021/09/22 04:42:27;;;;;;;3.50;3.20;;;5.90;99.90;;;;;;472483;251;27488;-69
2021/09/22 04:44:28;;;;;;;3.45;3.15;;;5.80;99.90;;;;;;472520;250;27547;-69
2021/09/22 04:46:30;;;;;;;2.70;2.50;;;5.80;99.90;;;;;;472518;250;27601;-69
2021/09/22 04:48:31;;;;;;;3.20;3.00;;;5.90;99.90;;;;;;472496;251;27601;-68
2021/09/22 04:50:32;;;;;;;4.00;2.92;;;5.80;99.90;;;;;;472502;250;27984;-69
2021/09/22 04:52:33;;;;;;;3.00;2.80;;;5.80;99.90;;;;;;472330;250;28040;-69
2021/09/22 04:54:35;;;;;;;3.08;2.87;;;5.80;99.90;;;;;;472470;250;28041;-69
2021/09/22 04:56:36;;;;;;;3.00;2.80;;;5.80;99.90;;;;;;472511;251;27523;-69
2021/09/22 04:58:37;;;;;;;3.10;2.90;;;5.80;99.90;;;;;;472433;250;27602;-69
2021/09/22 05:00:38;;;;;;;3.60;3.40;;;5.90;99.90;;;;;;472485;250;27570;-69
2021/09/22 05:02:40;;;;;;;3.20;3.00;;;5.90;99.90;;;;;;472447;250;27553;-69
2021/09/22 05:04:41;;;;;;;4.22;3.92;;;5.90;99.90;;;;;;472497;250;27657;-69
2021/09/22 05:06:42;;;;;;;4.05;3.72;;;5.90;99.90;;;;;;472523;250;27939;-69
2021/09/22 05:08:43;;;;;;;3.75;3.55;;;5.80;99.90;;;;;;472387;250;27929;-69
2021/09/22 05:10:45;;;;;;;3.10;2.90;;;5.80;99.90;;;;;;472501;251;28024;-69
2021/09/22 05:12:46;;;;;;;2.97;2.75;;;5.80;99.90;;;;;;472476;250;27477;-69
2021/09/22 05:14:47;;;;;;;3.12;2.92;;;5.80;99.90;;;;;;472488;250;27621;-69
2021/09/22 05:16:48;;;;;;;3.50;3.20;;;5.80;99.90;;;;;;472516;250;27565;-69
2021/09/22 05:18:50;;;;;;;3.12;2.92;;;5.80;99.90;;;;;;472485;250;27602;-69
2021/09/22 05:20:51;;;;;;;3.10;2.90;;;5.80;99.90;;;;;;472478;250;27622;-69
2021/09/22 05:22:52;;;;;;;2.47;2.33;;;5.80;99.90;;;;;;472447;250;27510;-69
2021/09/22 05:24:53;;;;;;;2.95;2.75;;;5.80;99.90;;;;;;472468;250;27990;-69
2021/09/22 05:26:55;;;;;;;3.00;2.80;;;5.80;99.90;;;;;;472390;250;28857;-69
2021/09/22 05:28:56;;;;;;;3.00;2.80;;;5.90;99.90;;;;;;472339;250;27506;-70
2021/09/22 05:30:57;;;;;;;2.85;2.65;;;5.80;99.90;;;;;;472285;250;27553;-69
2021/09/22 05:32:59;;;;;;;2.92;2.70;;;5.80;99.90;;;;;;472238;251;28803;-69
2021/09/22 05:35:00;;;;;;;3.20;3.00;;;5.80;99.90;;;;;;472351;245;27945;-69
2021/09/22 05:37:01;;;;;;;3.20;2.90;;;5.80;99.90;;;;;;472399;250;27524;-69
2021/09/22 05:39:02;;;;;;;2.80;2.60;;;5.80;99.90;;;;;;472455;250;27483;-69
2021/09/22 05:41:04;;;;;;;2.80;2.60;;;5.80;99.90;;;;;;472389;250;27520;-69
2021/09/22 05:43:05;;;;;;;2.72;2.40;;;5.80;99.90;;;;;;472325;245;27553;-69
2021/09/22 05:45:06;;;;;;;3.60;3.35;;;5.90;99.90;;;;;;472228;250;28022;-69
2021/09/22 05:47:07;;;;;;;2.97;2.80;;;5.90;99.90;;;;;;472431;251;27526;-69
2021/09/22 05:49:09;;;;;;;3.00;2.80;;;5.90;99.90;;;;;;472480;250;27982;-69
2021/09/22 05:51:10;;;;;;;3.03;2.83;;;5.90;99.90;;;;;;472485;250;28031;-69
2021/09/22 05:53:11;;;;;;;3.28;3.05;;;6.00;99.90;;;;;;472454;245;27547;-69
2021/09/22 05:55:12;;;;;;;2.95;2.75;;;6.00;99.90;;;;;;472512;250;27485;-70
2021/09/22 05:57:14;;;;;;;3.03;2.83;;;6.00;99.90;;;;;;472515;250;27538;-69
2021/09/22 05:59:15;;;;;;;3.65;2.60;;;6.10;99.90;;;;;;472473;250;27585;-69
2021/09/22 06:01:16;;;;;;;3.10;2.78;;;6.10;99.90;;;;;;472494;250;27540;-69
2021/09/22 06:03:18;;;;;;;2.90;2.70;;;6.10;99.90;;;;;;472474;250;27974;-69
2021/09/22 06:05:19;;;;;;;2.90;2.70;;;6.20;99.90;;;;;;472496;250;28031;-69
2021/09/22 06:07:20;;;;;;;2.90;2.70;;;6.20;99.90;;;;;;472485;250;27533;-69
2021/09/22 06:09:21;;;;;;;3.12;2.92;;;6.20;99.90;;;;;;472466;245;27503;-69
2021/09/22 06:11:23;;;;;;;3.60;3.30;;;6.30;99.90;;;;;;472482;250;27583;-69
2021/09/22 06:13:24;;;;;;;3.20;3.00;;;6.30;99.90;;;;;;472477;250;27530;-69
2021/09/22 06:15:25;;;;;;;3.00;2.80;;;6.30;99.90;;;;;;472507;250;27581;-69
2021/09/22 06:17:26;;;;;;;3.13;2.93;;;6.30;99.90;;;;;;472528;250;28051;-69
2021/09/22 06:19:27;;;;;;;3.87;3.58;;;6.40;99.90;;;;;;472467;251;29460;-69
2021/09/22 06:21:29;;;;;;;3.03;2.83;;;6.40;99.90;;;;;;472494;251;28008;-69
2021/09/22 06:23:30;;;;;;;3.58;3.28;;;6.40;99.90;;;;;;472481;250;27535;-69
2021/09/22 06:25:31;;;;;;;3.25;3.05;;;6.40;99.90;;;;;;472530;245;27490;-69
2021/09/22 06:27:33;;;;;;;3.60;3.10;;;6.50;99.90;;;;;;472507;250;27663;-69
2021/09/22 06:29:34;;;;;;;3.40;3.10;;;6.50;99.90;;;;;;472404;250;28119;-69
2021/09/22 06:31:37;;;;;;;4.07;3.70;;;6.60;99.90;;;;;;472559;250;27485;-69
2021/09/22 06:33:36;;;;;;;3.25;3.05;;;6.60;99.90;;;;;;472493;250;28033;-69
2021/09/22 06:35:38;;;;;;;5.13;3.17;;;6.60;99.90;;;;;;472523;250;28045;-69
2021/09/22 06:37:39;;;;;;;3.20;3.00;;;6.70;99.90;;;;;;472487;250;28875;-69
2021/09/22 06:39:40;;;;;;;3.30;3.00;;;6.80;99.90;;;;;;472478;250;27586;-69
2021/09/22 06:41:41;;;;;;;5.37;3.55;;;6.80;99.90;;;;;;472540;250;28833;-69
2021/09/22 06:43:43;;;;;;;4.47;3.30;;;6.80;99.90;;;;;;472498;250;27533;-69
2021/09/22 06:45:44;;;;;;;3.07;2.87;;;6.90;99.90;;;;;;472471;250;28834;-69
2021/09/22 06:47:45;;;;;;;3.60;3.30;;;6.90;99.90;;;;;;472479;250;28732;-69
2021/09/22 06:49:46;;;;;;;4.23;3.77;;;7.00;99.90;;;;;;472465;250;28064;-69
2021/09/22 06:51:48;;;;;;;3.20;3.00;;;7.00;99.90;;;;;;472486;250;28402;-69
2021/09/22 06:53:49;;;;;;;3.17;2.92;;;7.10;99.90;;;;;;472467;251;28080;-69
2021/09/22 06:55:50;;;;;;;3.50;3.20;;;7.10;99.90;;;;;;472488;250;27559;-69
2021/09/22 06:57:51;;;;;;;3.40;3.20;;;7.20;99.90;;;;;;472501;251;28884;-69
2021/09/22 06:59:53;;;;;;;5.10;3.37;;;7.30;99.90;;;;;;472473;250;28362;-69
2021/09/22 07:01:54;;;;;;;4.20;3.30;;;7.30;99.90;;;;;;472567;250;27618;-69
2021/09/22 07:03:57;;;;;;;3.67;3.37;;;;;;;;;;472519;250;27908;-70
2021/09/22 07:05:58;;;;;;;3.17;2.93;;;;;;;;;;472481;251;28246;-69
2021/09/22 07:08:00;;;;;;;5.80;3.40;;;;;;;;;;472536;251;26926;-69
2021/09/22 07:10:02;;;;;;;3.30;3.00;;;;;;;;;;472509;251;26879;-69
2021/09/22 07:12:05;;;;;;;2.90;2.70;;;;;;;;;;472548;251;26884;-70
2021/09/22 07:14:07;;;;;;;5.30;3.60;;;;;;;;;;472543;251;26752;-70
2021/09/22 07:16:10;;;;;;;3.70;3.10;;;;;;;;;;472528;251;26801;-70
2021/09/22 07:18:15;;;;;;;3.00;2.80;;;;;;;;;;472426;251;26844;-70
2021/09/22 07:20:13;;;;;;;5.43;3.37;;;;;;;;;;472117;251;26885;-69
2021/09/22 07:22:15;;;;;;;3.23;3.03;;;;;;;;;;472507;251;26964;-69
2021/09/22 07:24:17;;;;;;;3.80;3.53;;;;;;;;;;472495;251;27349;-69
2021/09/22 07:26:19;;;;;;;2.73;2.50;;;;;;;;;;472552;251;26879;-70
2021/09/22 07:28:21;;;;;;;3.67;2.80;;;;;;;;;;472534;251;27312;-70
2021/09/22 07:30:24;;;;;;;3.33;3.13;;;;;;;;;;472487;251;26617;-70
2021/09/22 07:32:26;;;;;;;2.80;2.60;;;;;;;;;;472529;251;27356;-70
2021/09/22 07:34:28;;;;;;;2.70;2.50;;;;;;;;;;472515;251;27276;-70
2021/09/22 07:36:30;;;;;;;2.87;2.67;;;;;;;;;;472548;251;26902;-70
2021/09/22 07:38:32;;;;;;;2.83;2.63;;;;;;;;;;472503;251;27060;-70
2021/09/22 07:40:34;;;;;;;2.63;2.50;;;;;;;;;;472478;251;27209;-70
2021/09/22 07:42:36;;;;;;;2.90;2.70;;;;;;;;;;472522;251;27012;-70
2021/09/22 07:44:38;;;;;;;3.37;2.70;;;;;;;;;;472511;251;27318;-70
2021/09/22 07:46:41;;;;;;;3.30;3.00;;;;;;;;;;472528;251;27405;-70
2021/09/22 07:48:43;;;;;;;2.67;2.47;;;;;;;;;;472514;251;27589;-70
2021/09/22 07:50:45;;;;;;;2.80;2.60;;;;;;;;;;472467;251;28303;-70
2021/09/22 07:52:47;;;;;;;2.57;2.40;;;;;;;;;;472545;251;27546;-70
2021/09/22 07:54:49;;;;;;;2.67;2.47;;;;;;;;;;472521;251;28007;-70
2021/09/22 07:56:51;;;;;;;3.10;2.80;;;;;;;;;;472521;251;27416;-70
2021/09/22 07:58:53;;;;;;;3.33;3.03;;;;;;;;;;472542;251;27477;-70
2021/09/22 08:00:55;;;;;;;3.07;2.77;;;;;;;;;;472436;251;27616;-70
2021/09/22 08:03:01;;;;;;;3.83;3.00;;;;;;;;;;472563;245;27669;-70
2021/09/22 08:05:00;;;;;;;3.40;3.10;;;;;;;;;;472282;251;27746;-70
2021/09/22 08:07:02;;;;;;;3.20;3.00;;;11.70;99.90;;;;;;472508;251;27752;-70
2021/09/22 08:09:02;;;;;;;3.67;3.37;;;11.80;99.90;;;;;;472504;250;27971;-69
2021/09/22 08:11:03;;;;;;;4.40;3.07;;;11.80;99.90;;;;;;472473;251;27947;-69
2021/09/22 08:13:05;;;;;;;3.27;2.97;;;12.00;99.90;;;;;;472523;250;28027;-69
2021/09/22 08:15:06;;;;;;;3.63;3.33;;;12.00;99.90;;;;;;472529;250;28062;-69
2021/09/22 08:17:07;;;;;;;8.97;4.00;;;12.40;99.90;;;;;;472488;250;28170;-69
2021/09/22 08:19:08;;;;;;;4.20;3.70;;;12.50;99.90;;;;;;472494;250;28046;-71
2021/09/22 08:21:10;;;;;;;5.40;4.10;;;12.50;99.90;;;;;;472487;250;28781;-69
2021/09/22 08:23:11;;;;;;;5.30;3.87;;;12.60;99.90;;;;;;472520;250;28751;-69
2021/09/22 08:25:12;;;;;;;5.97;4.27;;;12.70;99.90;;;;;;472477;250;28530;-70
2021/09/22 08:27:13;;;;;;;4.53;4.10;;;12.60;99.90;;;;;;472507;250;28237;-70
2021/09/22 08:29:15;;;;;;;4.57;4.00;;;12.80;99.90;;;;;;472486;250;28129;-70
2021/09/22 08:31:16;;;;;;;4.37;3.97;;;12.80;99.90;;;;;;472503;250;28261;-70
2021/09/22 08:33:17;;;;;;;4.63;3.70;;;12.80;99.90;;;;;;472542;250;28575;-70
2021/09/22 08:35:18;;;;;;;4.40;4.10;;;12.70;99.90;;;;;;472498;250;28310;-70
2021/09/22 08:37:20;;;;;;;3.77;3.47;;;12.80;99.90;;;;;;472508;250;28133;-70
2021/09/22 08:39:21;;;;;;;3.57;3.27;;;12.80;99.90;;;;;;472481;250;28427;-70
2021/09/22 08:41:22;;;;;;;4.93;3.63;;;12.80;99.90;;;;;;472512;250;28579;-71
2021/09/22 08:43:23;;;;;;;3.27;3.00;;;13.00;99.90;;;;;;472519;245;28441;-70
2021/09/22 08:45:25;;;;;;;3.60;3.30;;;12.90;99.90;;;;;;472473;250;28565;-70
2021/09/22 08:47:26;;;;;;;3.67;3.37;;;12.80;99.90;;;;;;472510;250;29127;-70
2021/09/22 08:49:27;;;;;;;3.90;3.60;;;12.90;99.90;;;;;;472485;250;30661;-70
2021/09/22 08:51:28;;;;;;;4.40;4.00;;;12.90;99.90;;;;;;472501;250;28052;-70
2021/09/22 08:53:30;;;;;;;3.70;3.40;;;12.90;99.90;;;;;;472449;250;28149;-70
2021/09/22 08:55:31;;;;;;;3.90;3.33;;;12.90;99.90;;;;;;472492;250;28621;-70
2021/09/22 08:57:32;;;;;;;4.10;3.70;;;13.00;99.90;;;;;;472490;250;28277;-70
2021/09/22 08:59:33;;;;;;;3.80;3.50;;;13.10;99.90;;;;;;472477;250;28708;-70
2021/09/22 09:01:35;;;;;;;3.63;3.33;;;13.30;99.90;;;;;;472516;250;28171;-70
2021/09/22 09:03:40;;;;;;;3.70;3.40;;;13.30;99.90;;;;;;472504;250;28369;-70
2021/09/22 09:05:37;;;;;;;3.90;3.37;;;13.30;99.90;;;;;;472483;250;28318;-70
2021/09/22 09:07:38;;;;;;;3.90;3.60;;;13.50;99.90;;;;;;472482;250;28271;-69
2021/09/22 09:09:40;;;;;;;4.80;3.47;;;13.60;99.90;;;;;;472494;250;29091;-72
2021/09/22 09:11:42;;;;;;;4.80;3.60;;;;;;;;;;472477;250;28981;-72
2021/09/22 09:13:45;;;;;;;3.17;2.93;;;;;;;;;;472505;251;26959;-70
2021/09/22 09:15:47;;;;;;;3.00;2.77;;;13.80;99.90;;;;;;472485;251;28001;-70
2021/09/22 09:17:50;;;;;;;3.90;3.10;;;13.80;99.90;;;;;;472516;250;28853;-70
2021/09/22 09:19:48;;;;;;;3.47;3.17;;;13.80;99.90;;;;;;472503;250;28729;-71
2021/09/22 09:21:50;;;;;;;3.20;2.90;;;13.80;99.90;;;;;;472460;250;28369;-70
2021/09/22 09:23:51;;;;;;;3.07;2.87;;;13.70;99.90;;;;;;472465;250;28215;-71
2021/09/22 09:25:52;;;;;;;4.17;2.80;;;13.70;99.90;;;;;;472486;251;28312;-71
2021/09/22 09:27:53;;;;;;;3.20;2.90;;;13.80;99.90;;;;;;472511;251;28319;-71
2021/09/22 09:29:55;;;;;;;4.40;3.10;;;13.90;99.90;;;;;;472495;250;28274;-70
2021/09/22 09:31:56;;;;;;;3.33;3.03;;;13.90;99.90;;;;;;472459;250;28291;-71
2021/09/22 09:33:58;;;;;;;2.90;2.70;;;;;;;;;;472451;250;28239;-70
2021/09/22 09:36:04;;;;;;;3.57;3.27;;;14.00;99.90;;;;;;472479;251;26650;-70
2021/09/22 09:38:01;;;;;;;3.17;2.93;;;14.10;99.90;;;;;;472522;250;28247;-70
2021/09/22 09:40:02;;;;;;;2.70;2.50;;;14.10;99.90;;;;;;472446;250;28328;-72
2021/09/22 09:42:04;;;;;;;3.60;2.73;;;;;;;;;;472453;250;28237;-70
2021/09/22 09:44:06;;;;;;;4.27;3.30;;;14.30;99.90;;;;;;472532;251;27142;-70
2021/09/22 09:46:07;;;;;;;3.90;2.97;;;14.30;99.90;;;;;;472457;250;28806;-70
2021/09/22 09:48:08;;;;;;;5.63;2.80;;;14.50;99.90;;;;;;472485;250;28197;-70
2021/09/22 09:50:09;;;;;;;2.73;2.53;;;14.60;99.90;;;;;;472465;250;28390;-71
2021/09/22 09:52:11;;;;;;;4.90;3.20;;;14.60;99.90;;;;;;472496;250;28344;-71
2021/09/22 09:54:12;;;;;;;3.13;2.83;;;14.60;99.90;;;;;;472480;245;28208;-71
2021/09/22 09:56:13;;;;;;;3.33;2.87;;;14.70;99.90;;;;;;472451;250;28522;-71
2021/09/22 09:58:14;;;;;;;4.10;3.10;;;14.80;99.90;;;;;;472479;250;28504;-72
2021/09/22 10:00:16;;;;;;;2.90;2.70;;;14.60;99.90;;;;;;472475;250;28326;-72
2021/09/22 10:02:17;;;;;;;3.70;2.97;;;14.60;99.90;;;;;;472485;250;28471;-72
2021/09/22 10:04:18;;;;;;;2.67;2.47;;;14.70;99.90;;;;;;472520;250;28853;-69
2021/09/22 10:06:19;;;;;;;2.40;2.20;;;14.70;99.90;;;;;;472460;250;29482;-69
2021/09/22 10:08:21;;;;;;;2.80;2.60;;;14.70;99.90;;;;;;472472;250;28791;-71
2021/09/22 10:10:22;;;;;;;3.03;2.63;;;14.80;99.90;;;;;;472490;250;28800;-72
2021/09/22 10:12:23;;;;;;;3.13;2.93;;;14.60;99.90;;;;;;472468;250;28268;-71
2021/09/22 10:14:24;;;;;;;2.43;2.23;;;14.50;99.90;;;;;;472498;251;28645;-70
2021/09/22 10:16:26;;;;;;;2.60;2.40;;;14.40;99.90;;;;;;472445;250;28420;-72
2021/09/22 10:18:27;;;;;;;2.60;2.40;;;14.50;99.90;;;;;;472529;250;28398;-70
2021/09/22 10:20:28;;;;;;;2.10;2.00;;;14.80;99.90;;;;;;472470;250;28242;-72
2021/09/22 10:22:30;;;;;;;4.57;2.80;;;14.90;99.90;;;;;;472461;250;28460;-71
2021/09/22 10:24:31;;;;;;;2.60;2.40;;;14.90;99.90;;;;;;472525;250;28405;-71
2021/09/22 10:26:32;;;;;;;2.90;2.60;;;15.00;99.90;;;;;;472325;250;28460;-72
2021/09/22 10:28:33;;;;;;;2.57;2.37;;;15.00;99.90;;;;;;472477;250;28611;-70
2021/09/22 10:30:34;;;;;;;2.43;2.23;;;15.20;99.90;;;;;;472496;250;28921;-72
2021/09/22 10:32:36;;;;;;;3.47;2.27;;;15.30;99.90;;;;;;472535;250;28816;-71
2021/09/22 10:34:37;;;;;;;2.47;2.27;;;15.20;99.90;;;;;;472531;250;28885;-70
2021/09/22 10:36:39;;;;;;;2.20;2.10;;;15.00;99.90;;;;;;472531;250;28586;-70
2021/09/22 10:38:40;;;;;;;2.23;2.13;;;15.20;99.90;;;;;;472502;250;28993;-70
2021/09/22 10:40:41;;;;;;;2.33;2.20;;;15.20;99.90;;;;;;472548;245;28526;-70
2021/09/22 10:42:43;;;;;;;2.30;2.10;;;15.20;99.90;;;;;;472489;250;28531;-70
2021/09/22 10:44:43;;;;;;;2.37;2.17;;;15.20;99.90;;;;;;472497;250;28517;-72
2021/09/22 10:46:44;;;;;;;1.90;1.80;;;15.20;99.90;;;;;;472452;250;28479;-71